createdAt,value
2018-06-15T00:10:34.749Z,12.86
2018-06-15T00:13:03.721Z,12.83
2018-06-15T00:15:33.237Z,12.77
2018-06-15T00:18:01.988Z,12.71
2018-06-15T00:20:30.786Z,12.69
2018-06-15T00:22:59.908Z,12.64
2018-06-15T00:25:28.850Z,12.64
2018-06-15T00:27:57.452Z,12.60
2018-06-15T00:30:26.166Z,12.60
2018-06-15T00:32:54.796Z,12.57
2018-06-15T00:35:23.516Z,12.51
2018-06-15T00:37:52.735Z,12.49
2018-06-15T00:40:21.544Z,12.47
2018-06-15T00:42:50.896Z,12.48
2018-06-15T00:45:20.037Z,12.47
2018-06-15T00:47:49.444Z,12.39
2018-06-15T00:50:18.408Z,12.35
2018-06-15T00:52:47.103Z,12.38
2018-06-15T00:55:15.912Z,12.35
2018-06-15T00:57:47.316Z,12.34
2018-06-15T01:00:16.544Z,12.36
2018-06-15T01:02:45.566Z,12.36
2018-06-15T01:05:14.178Z,12.37
2018-06-15T01:07:43.125Z,12.39
2018-06-15T01:10:12.411Z,12.29
2018-06-15T01:12:41.593Z,12.25
2018-06-15T01:15:10.348Z,12.21
2018-06-15T01:17:38.960Z,12.21
2018-06-15T01:20:08.179Z,12.23
2018-06-15T01:22:37.569Z,12.21
2018-06-15T01:25:06.362Z,12.20
2018-06-15T01:27:34.987Z,12.14
2018-06-15T01:30:03.767Z,12.08
2018-06-15T01:32:32.397Z,12.08
2018-06-15T01:35:01.171Z,12.00
2018-06-15T01:37:29.857Z,12.00
2018-06-15T01:39:58.451Z,12.02
2018-06-15T01:42:27.231Z,12.00
2018-06-15T01:44:56.670Z,12.00
2018-06-15T01:47:25.806Z,11.99
2018-06-15T01:49:54.535Z,11.95
2018-06-15T01:52:23.136Z,11.89
2018-06-15T01:54:52.080Z,11.86
2018-06-15T01:57:21.590Z,11.85
2018-06-15T01:59:50.941Z,11.85
2018-06-15T02:02:20.150Z,11.85
2018-06-15T02:04:48.875Z,11.84
2018-06-15T02:07:17.576Z,11.84
2018-06-15T02:09:46.347Z,11.84
2018-06-15T02:12:15.023Z,11.81
2018-06-15T02:14:43.728Z,11.78
2018-06-15T02:17:13.578Z,11.79
2018-06-15T02:19:42.276Z,11.79
2018-06-15T02:22:10.942Z,11.83
2018-06-15T02:24:39.687Z,11.88
2018-06-15T02:27:08.408Z,11.88
2018-06-15T02:29:37.351Z,11.91
2018-06-15T02:32:06.107Z,11.90
2018-06-15T02:34:34.946Z,11.88
2018-06-15T02:37:03.583Z,11.87
2018-06-15T02:39:32.199Z,11.83
2018-06-15T02:42:00.921Z,11.84
2018-06-15T02:44:29.897Z,11.84
2018-06-15T02:46:59.258Z,11.82
2018-06-15T02:49:28.171Z,11.82
2018-06-15T02:51:56.861Z,11.85
2018-06-15T02:54:25.883Z,11.88
2018-06-15T02:56:54.550Z,11.86
2018-06-15T02:59:23.266Z,11.86
2018-06-15T03:01:52.168Z,11.81
2018-06-15T03:04:20.972Z,11.72
2018-06-15T03:06:50.243Z,11.68
2018-06-15T03:09:18.978Z,11.69
2018-06-15T03:11:47.648Z,11.71
2018-06-15T03:14:16.773Z,11.65
2018-06-15T03:16:45.601Z,11.57
2018-06-15T03:19:14.527Z,11.56
2018-06-15T03:21:43.370Z,11.51
2018-06-15T03:24:12.797Z,11.53
2018-06-15T03:26:41.978Z,11.51
2018-06-15T03:29:11.767Z,11.53
2018-06-15T03:31:40.378Z,11.52
2018-06-15T03:34:09.668Z,11.52
2018-06-15T03:36:38.446Z,11.54
2018-06-15T03:39:10.410Z,11.56
2018-06-15T03:41:39.232Z,11.57
2018-06-15T03:44:08.267Z,11.58
2018-06-15T03:46:38.256Z,11.58
2018-06-15T03:49:07.028Z,11.60
2018-06-15T03:51:36.317Z,11.64
2018-06-15T03:54:05.211Z,11.65
2018-06-15T03:56:33.871Z,11.70
2018-06-15T03:59:02.773Z,11.76
2018-06-15T04:01:33.073Z,11.79
2018-06-15T04:04:01.886Z,11.85
2018-06-15T04:06:30.564Z,11.85
2018-06-15T04:08:59.728Z,11.86
2018-06-15T04:11:28.281Z,11.88
2018-06-15T04:13:57.037Z,11.94
2018-06-15T04:16:25.754Z,12.00
2018-06-15T04:18:54.667Z,12.09
2018-06-15T04:21:24.010Z,12.14
2018-06-15T04:23:53.262Z,12.13
2018-06-15T04:26:22.237Z,12.18
2018-06-15T04:28:50.849Z,12.22
2018-06-15T04:31:19.908Z,12.28
2018-06-15T04:33:48.844Z,12.34
2018-06-15T04:36:17.829Z,12.41
2018-06-15T04:38:46.418Z,12.47
2018-06-15T04:41:15.949Z,12.57
2018-06-15T04:43:44.861Z,12.63
2018-06-15T04:46:13.768Z,12.67
2018-06-15T04:48:42.363Z,12.77
2018-06-15T04:51:11.488Z,12.82
2018-06-15T04:53:40.953Z,12.90
2018-06-15T04:56:09.662Z,12.98
2018-06-15T04:58:39.332Z,13.06
2018-06-15T05:01:08.539Z,13.18
2018-06-15T05:03:37.839Z,13.27
2018-06-15T05:06:06.912Z,13.45
2018-06-15T05:08:35.678Z,13.63
2018-06-15T05:11:04.437Z,13.73
2018-06-15T05:13:33.678Z,13.84
2018-06-15T05:16:02.439Z,13.98
2018-06-15T05:18:31.843Z,14.12
2018-06-15T05:21:01.190Z,14.28
2018-06-15T05:23:30.084Z,14.46
2018-06-15T05:25:59.676Z,14.61
2018-06-15T05:28:28.547Z,14.74
2018-06-15T05:30:57.395Z,14.87
2018-06-15T05:33:26.564Z,14.99
2018-06-15T05:35:55.837Z,15.13
2018-06-15T05:38:24.489Z,15.39
2018-06-15T05:40:53.407Z,15.67
2018-06-15T05:43:22.157Z,15.94
2018-06-15T05:45:50.894Z,16.30
2018-06-15T05:48:19.740Z,16.72
2018-06-15T05:50:48.657Z,17.07
2018-06-15T05:53:17.294Z,17.59
2018-06-15T05:55:46.982Z,18.08
2018-06-15T05:58:15.692Z,18.37
2018-06-15T06:00:44.896Z,18.85
2018-06-15T06:03:20.074Z,18.80
2018-06-15T06:05:49.327Z,18.86
2018-06-15T06:08:19.750Z,19.00
2018-06-15T06:10:49.714Z,18.86
2018-06-15T06:13:18.687Z,18.91
2018-06-15T06:15:47.970Z,18.94
2018-06-15T06:18:17.359Z,19.08
2018-06-15T06:20:46.127Z,19.05
2018-06-15T06:23:14.797Z,18.95
2018-06-15T06:25:43.592Z,19.08
2018-06-15T06:28:12.429Z,19.28
2018-06-15T06:30:41.454Z,19.33
2018-06-15T06:33:10.254Z,19.36
2018-06-15T06:35:39.804Z,19.23
2018-06-15T06:38:10.003Z,18.82
2018-06-15T06:40:38.593Z,18.79
2018-06-15T06:43:07.498Z,18.89
2018-06-15T06:45:36.115Z,18.86
2018-06-15T06:48:04.883Z,19.03
2018-06-15T06:50:33.482Z,19.46
2018-06-15T06:53:02.181Z,19.74
2018-06-15T06:55:30.845Z,20.14
2018-06-15T06:57:59.549Z,20.70
2018-06-15T07:00:29.074Z,21.13
2018-06-15T07:02:58.084Z,21.53
2018-06-15T07:05:26.904Z,21.28
2018-06-15T07:07:55.755Z,21.34
2018-06-15T07:10:24.999Z,21.50
2018-06-15T07:12:54.511Z,21.60
2018-06-15T07:15:23.475Z,21.58
2018-06-15T07:17:52.086Z,21.49
2018-06-15T07:20:20.890Z,21.71
2018-06-15T07:22:50.084Z,21.89
2018-06-15T07:25:19.784Z,22.16
2018-06-15T07:27:48.602Z,22.65
2018-06-15T07:30:17.952Z,23.02
2018-06-15T07:32:46.930Z,23.25
2018-06-15T07:35:15.511Z,23.25
2018-06-15T07:37:44.495Z,23.64
2018-06-15T07:40:13.395Z,24.25
2018-06-15T07:42:42.645Z,24.73
2018-06-15T07:45:11.360Z,24.48
2018-06-15T07:47:40.027Z,24.75
2018-06-15T07:50:08.826Z,26.20
2018-06-15T07:52:37.885Z,27.17
2018-06-15T07:55:07.380Z,28.26
2018-06-15T07:57:36.165Z,29.08
2018-06-15T08:00:05.132Z,29.05
2018-06-15T08:02:33.790Z,28.76
2018-06-15T08:05:02.565Z,29.35
2018-06-15T08:07:31.229Z,30.38
2018-06-15T08:10:00.057Z,29.28
2018-06-15T08:12:28.743Z,29.71
2018-06-15T08:14:57.476Z,29.76
2018-06-15T08:17:26.173Z,29.93
2018-06-15T08:19:55.009Z,29.54
2018-06-15T08:22:23.745Z,28.63
2018-06-15T08:24:52.583Z,28.67
2018-06-15T08:27:22.084Z,29.08
2018-06-15T08:29:50.849Z,28.95
2018-06-15T08:32:19.741Z,28.71
2018-06-15T08:34:49.043Z,28.09
2018-06-15T08:37:18.117Z,28.07
2018-06-15T08:39:46.635Z,28.16
2018-06-15T08:42:15.289Z,28.43
2018-06-15T08:44:44.130Z,28.44
2018-06-15T08:47:12.966Z,28.52
2018-06-15T08:49:41.814Z,29.05
2018-06-15T08:52:11.375Z,28.48
2018-06-15T08:54:40.714Z,28.65
2018-06-15T08:57:09.421Z,28.76
2018-06-15T08:59:38.126Z,28.81
2018-06-15T09:02:07.165Z,28.73
2018-06-15T09:04:36.111Z,29.15
2018-06-15T09:07:05.082Z,29.40
2018-06-15T09:09:34.066Z,30.00
2018-06-15T09:12:02.616Z,30.69
2018-06-15T09:14:31.453Z,31.17
2018-06-15T09:17:00.809Z,31.26
2018-06-15T09:19:29.993Z,31.46
2018-06-15T09:21:58.843Z,31.35
2018-06-15T09:24:27.468Z,30.74
2018-06-15T09:26:56.253Z,31.01
2018-06-15T09:29:24.950Z,30.46
2018-06-15T09:31:53.507Z,28.92
2018-06-15T09:34:22.150Z,27.66
2018-06-15T09:36:51.548Z,26.82
2018-06-15T09:39:20.355Z,26.22
2018-06-15T09:41:50.081Z,26.09
2018-06-15T09:44:19.266Z,26.06
2018-06-15T09:46:48.116Z,25.80
2018-06-15T09:49:16.789Z,25.93
2018-06-15T09:51:45.625Z,26.76
2018-06-15T09:54:14.239Z,27.63
2018-06-15T09:56:43.565Z,27.87
2018-06-15T09:59:12.363Z,28.31
2018-06-15T10:01:41.053Z,28.25
2018-06-15T10:04:09.689Z,28.53
2018-06-15T10:06:38.243Z,28.76
2018-06-15T10:09:07.921Z,28.94
2018-06-15T10:11:36.615Z,29.20
2018-06-15T10:14:05.320Z,29.18
2018-06-15T10:16:34.210Z,29.92
2018-06-15T10:19:03.636Z,29.83
2018-06-15T10:21:32.374Z,29.95
2018-06-15T10:24:01.120Z,30.03
2018-06-15T10:26:30.060Z,30.01
2018-06-15T10:28:58.936Z,29.81
2018-06-15T10:31:27.670Z,29.70
2018-06-15T10:33:56.838Z,29.91
2018-06-15T10:36:26.095Z,30.82
2018-06-15T10:38:54.867Z,31.72
2018-06-15T10:41:23.512Z,31.06
2018-06-15T10:43:52.791Z,30.98
2018-06-15T10:46:21.862Z,30.46
2018-06-15T10:48:50.762Z,29.63
2018-06-15T10:51:19.547Z,29.21
2018-06-15T10:53:48.360Z,29.20
2018-06-15T10:56:17.132Z,28.94
2018-06-15T10:58:46.108Z,27.94
2018-06-15T11:01:14.871Z,27.65
2018-06-15T11:03:43.500Z,27.51
2018-06-15T11:06:13.094Z,27.41
2018-06-15T11:08:41.877Z,27.48
2018-06-15T11:11:11.200Z,27.58
2018-06-15T11:13:40.489Z,27.53
2018-06-15T11:16:09.691Z,27.34
2018-06-15T11:18:38.791Z,26.80
2018-06-15T11:21:07.445Z,26.62
2018-06-15T11:23:36.340Z,26.60
2018-06-15T11:26:05.235Z,26.82
2018-06-15T11:28:34.111Z,26.79
2018-06-15T11:31:02.708Z,26.42
2018-06-15T11:33:32.194Z,27.18
2018-06-15T11:36:01.463Z,27.57
2018-06-15T11:38:30.252Z,27.59
2018-06-15T11:40:59.170Z,27.59
2018-06-15T11:43:27.842Z,27.43
2018-06-15T11:45:56.552Z,27.61
2018-06-15T11:48:25.297Z,27.89
2018-06-15T11:50:55.511Z,27.61
2018-06-15T11:53:24.340Z,26.86
2018-06-15T11:55:52.901Z,26.08
2018-06-15T11:58:21.710Z,26.09
2018-06-15T12:00:50.922Z,25.99
2018-06-15T12:03:20.382Z,26.13
2018-06-15T12:05:50.218Z,25.96
2018-06-15T12:08:19.646Z,26.13
2018-06-15T12:10:48.897Z,26.67
2018-06-15T12:13:17.657Z,26.62
2018-06-15T12:15:46.675Z,26.49
2018-06-15T12:18:15.386Z,26.45
2018-06-15T12:20:44.856Z,26.44
2018-06-15T12:23:13.681Z,26.59
2018-06-15T12:25:42.581Z,26.66
2018-06-15T12:28:11.325Z,26.72
2018-06-15T12:30:40.117Z,26.96
2018-06-15T12:33:08.933Z,26.76
2018-06-15T12:35:37.811Z,26.74
2018-06-15T12:38:06.831Z,26.69
2018-06-15T12:40:35.468Z,26.71
2018-06-15T12:43:04.585Z,26.67
2018-06-15T12:45:33.476Z,26.59
2018-06-15T12:48:02.140Z,26.53
2018-06-15T12:50:30.852Z,26.34
2018-06-15T12:52:59.566Z,26.19
2018-06-15T12:55:28.271Z,26.20
2018-06-15T12:57:57.115Z,26.18
2018-06-15T13:00:25.975Z,26.26
2018-06-15T13:02:54.732Z,26.14
2018-06-15T13:05:24.357Z,26.26
2018-06-15T13:07:53.109Z,26.32
2018-06-15T13:10:21.883Z,26.15
2018-06-15T13:12:50.558Z,26.00
2018-06-15T13:15:19.657Z,25.94
2018-06-15T13:17:48.779Z,25.74
2018-06-15T13:20:17.792Z,25.51
2018-06-15T13:22:46.720Z,25.61
2018-06-15T13:25:15.551Z,25.28
2018-06-15T13:27:44.396Z,25.41
2018-06-15T13:30:13.155Z,25.29
2018-06-15T13:32:41.858Z,25.08
2018-06-15T13:35:11.457Z,25.01
2018-06-15T13:37:40.610Z,25.12
2018-06-15T13:40:09.479Z,25.36
2018-06-15T13:42:38.195Z,25.37
2018-06-15T13:45:07.332Z,25.36
2018-06-15T13:47:35.998Z,25.57
2018-06-15T13:50:05.160Z,25.66
2018-06-15T13:52:34.116Z,25.78
2018-06-15T13:55:02.982Z,25.61
2018-06-15T13:57:32.507Z,25.72
2018-06-15T14:00:01.947Z,25.90
2018-06-15T14:02:32.116Z,25.97
2018-06-15T14:05:01.106Z,26.10
2018-06-15T14:07:30.573Z,25.80
2018-06-15T14:10:00.722Z,25.71
2018-06-15T14:12:29.936Z,25.77
2018-06-15T14:14:58.969Z,25.98
2018-06-15T14:17:27.851Z,26.31
2018-06-15T14:19:56.471Z,26.17
2018-06-15T14:22:25.270Z,26.37
2018-06-15T14:24:54.032Z,26.60
2018-06-15T14:27:22.809Z,26.44
2018-06-15T14:29:51.662Z,26.46
2018-06-15T14:32:20.599Z,26.29
2018-06-15T14:34:49.489Z,25.82
2018-06-15T14:37:18.294Z,25.40
2018-06-15T14:39:47.550Z,25.11
2018-06-15T14:42:16.302Z,24.86
2018-06-15T14:44:44.898Z,24.73
2018-06-15T14:47:14.254Z,24.65
2018-06-15T14:49:43.292Z,24.53
2018-06-15T14:52:12.570Z,24.73
2018-06-15T14:54:41.646Z,24.80
2018-06-15T14:57:10.519Z,24.94
2018-06-15T14:59:40.196Z,24.76
2018-06-15T15:02:09.334Z,24.74
2018-06-15T15:04:39.728Z,24.92
2018-06-15T15:07:08.826Z,25.02
2018-06-15T15:09:40.941Z,25.12
2018-06-15T15:12:09.805Z,25.04
2018-06-15T15:21:20.802Z,25.35
2018-06-15T15:23:50.121Z,25.47
2018-06-15T15:26:19.332Z,25.51
2018-06-15T15:28:48.562Z,25.31
2018-06-15T15:31:17.697Z,25.09
2018-06-15T15:33:46.772Z,24.89
2018-06-15T15:36:15.546Z,24.64
2018-06-15T15:38:45.578Z,24.52
2018-06-15T15:41:14.363Z,24.37
2018-06-15T15:43:43.877Z,24.18
2018-06-15T15:46:12.827Z,24.13
2018-06-15T15:48:41.617Z,23.99
2018-06-15T15:51:10.711Z,24.07
2018-06-15T15:53:39.803Z,23.87
2018-06-15T15:56:08.945Z,23.86
2018-06-15T15:58:38.278Z,23.87
2018-06-15T16:01:08.042Z,23.77
2018-06-15T16:03:36.873Z,23.91
2018-06-15T16:06:06.005Z,24.16
2018-06-15T16:08:35.064Z,24.50
2018-06-15T16:11:03.984Z,24.81
2018-06-15T16:13:33.745Z,25.08
2018-06-15T16:16:03.006Z,25.25
2018-06-15T16:18:32.029Z,25.72
2018-06-15T16:21:00.990Z,26.11
2018-06-15T16:23:29.768Z,26.50
2018-06-15T16:25:58.733Z,26.91
2018-06-15T16:28:27.947Z,27.11
2018-06-15T16:30:56.657Z,27.24
2018-06-15T16:33:25.502Z,27.16
2018-06-15T16:35:54.545Z,27.09
2018-06-15T16:38:23.773Z,26.91
2018-06-15T16:40:52.769Z,26.62
2018-06-15T16:43:21.615Z,26.17
2018-06-15T16:45:50.610Z,25.89
2018-06-15T16:48:19.412Z,25.87
2018-06-15T16:50:49.168Z,25.98
2018-06-15T16:53:17.900Z,26.05
2018-06-15T16:55:46.613Z,26.20
2018-06-15T16:58:15.317Z,26.33
2018-06-15T17:00:44.818Z,26.40
2018-06-15T17:03:15.311Z,26.23
2018-06-15T17:05:43.987Z,25.90
2018-06-15T17:08:12.731Z,25.53
2018-06-15T17:10:42.354Z,25.10
2018-06-15T17:13:11.185Z,24.88
2018-06-15T17:15:41.187Z,24.50
2018-06-15T17:18:10.073Z,24.25
2018-06-15T17:20:38.671Z,24.04
2018-06-15T17:23:07.964Z,23.78
2018-06-15T17:25:37.105Z,23.58
2018-06-15T17:28:06.008Z,23.48
2018-06-15T17:30:34.843Z,23.22
2018-06-15T17:33:03.621Z,22.85
2018-06-15T17:35:33.033Z,22.76
2018-06-15T17:38:02.381Z,22.60
2018-06-15T17:40:31.503Z,22.54
2018-06-15T17:43:00.954Z,22.48
2018-06-15T17:45:30.372Z,22.41
2018-06-15T17:47:59.496Z,22.38
2018-06-15T17:50:28.503Z,22.31
2018-06-15T17:52:57.574Z,22.33
2018-06-15T17:55:26.909Z,22.32
2018-06-15T17:57:55.932Z,22.26
2018-06-15T18:00:25.303Z,22.26
2018-06-15T18:02:54.390Z,22.29
2018-06-15T18:05:23.714Z,22.31
2018-06-15T18:07:53.072Z,22.29
2018-06-15T18:10:22.229Z,22.16
2018-06-15T18:12:51.349Z,22.03
2018-06-15T18:15:20.507Z,21.88
2018-06-15T18:17:49.879Z,21.68
2018-06-15T18:20:19.039Z,21.44
2018-06-15T18:22:48.103Z,21.27
2018-06-15T18:25:17.557Z,21.10
2018-06-15T18:27:47.005Z,20.98
2018-06-15T18:30:16.903Z,20.92
2018-06-15T18:32:45.880Z,20.80
2018-06-15T18:35:15.038Z,20.65
2018-06-15T18:37:46.650Z,20.53
2018-06-15T18:40:15.668Z,20.40
2018-06-15T18:42:45.003Z,20.31
2018-06-15T18:45:14.328Z,20.25
2018-06-15T18:47:43.137Z,20.19
2018-06-15T18:50:12.341Z,20.15
2018-06-15T18:52:41.422Z,20.07
2018-06-15T18:55:10.375Z,19.94
2018-06-15T18:57:39.244Z,19.78
2018-06-15T19:00:09.070Z,19.70
2018-06-15T19:02:38.223Z,19.59
2018-06-15T19:05:08.105Z,19.44
2018-06-15T19:07:37.179Z,19.35
2018-06-15T19:10:06.184Z,19.19
2018-06-15T19:12:35.702Z,19.16
2018-06-15T19:15:05.298Z,19.03
2018-06-15T19:17:34.225Z,18.92
2018-06-15T19:20:04.232Z,18.74
2018-06-15T19:22:33.635Z,18.63
2018-06-15T19:25:02.869Z,18.48
2018-06-15T19:27:32.056Z,18.36
2018-06-15T19:30:00.803Z,18.24
2018-06-15T19:32:29.643Z,18.19
2018-06-15T19:34:58.618Z,18.13
2018-06-15T19:37:28.585Z,18.02
2018-06-15T19:39:57.788Z,17.77
2018-06-15T19:42:27.263Z,17.63
2018-06-15T19:44:56.450Z,17.55
2018-06-15T19:47:25.787Z,17.48
2018-06-15T19:49:54.845Z,17.44
2018-06-15T19:52:24.139Z,17.36
2018-06-15T19:54:53.239Z,17.24
2018-06-15T19:57:22.689Z,17.18
2018-06-15T19:59:51.694Z,16.95
2018-06-15T20:02:21.098Z,16.87
2018-06-15T20:04:50.385Z,16.81
2018-06-15T20:07:19.550Z,16.70
2018-06-15T20:09:48.925Z,16.78
2018-06-15T20:12:17.968Z,16.67
2018-06-15T20:14:47.152Z,16.42
2018-06-15T20:17:16.349Z,16.28
2018-06-15T20:19:45.582Z,16.15
2018-06-15T20:22:15.027Z,16.18
2018-06-15T20:24:44.193Z,16.18
2018-06-15T20:27:13.417Z,16.18
2018-06-15T20:29:42.704Z,16.16
2018-06-15T20:32:11.933Z,16.03
2018-06-15T20:34:41.143Z,15.95
2018-06-15T20:37:11.117Z,15.73
2018-06-15T20:39:40.529Z,15.64
2018-06-15T20:42:09.484Z,15.66
2018-06-15T20:44:38.355Z,15.69
2018-06-15T20:47:07.948Z,15.58
2018-06-15T20:49:36.717Z,15.63
2018-06-15T20:52:06.574Z,15.67
2018-06-15T20:54:35.685Z,15.69
2018-06-15T20:57:04.295Z,15.71
2018-06-15T20:59:33.132Z,15.53
2018-06-15T21:02:01.985Z,15.41
2018-06-15T21:04:31.664Z,15.42
2018-06-15T21:07:00.663Z,15.32
2018-06-15T21:09:29.959Z,15.26
2018-06-15T21:11:59.173Z,15.23
2018-06-15T21:14:28.521Z,15.23
2018-06-15T21:16:57.568Z,15.17
2018-06-15T21:19:27.077Z,15.11
2018-06-15T21:21:56.160Z,15.08
2018-06-15T21:24:24.935Z,15.07
2018-06-15T21:26:53.847Z,14.98
2018-06-15T21:29:22.675Z,14.90
2018-06-15T21:31:52.289Z,14.79
2018-06-15T21:34:21.171Z,14.76
2018-06-15T21:36:50.115Z,14.79
2018-06-15T21:39:18.895Z,14.84
2018-06-15T21:41:47.843Z,14.79
2018-06-15T21:44:16.853Z,14.79
2018-06-15T21:46:45.700Z,14.74
2018-06-15T21:49:14.628Z,14.63
2018-06-15T21:51:43.989Z,14.60
2018-06-15T21:54:12.723Z,14.64
2018-06-15T21:56:41.383Z,14.47
2018-06-15T21:59:10.619Z,14.38
2018-06-15T22:01:39.393Z,14.38
2018-06-15T22:04:08.797Z,14.39
2018-06-15T22:06:37.551Z,14.41
2018-06-15T22:09:07.939Z,14.37
2018-06-15T22:11:36.542Z,14.26
2018-06-15T22:14:06.653Z,14.10
2018-06-15T22:16:41.264Z,14.09
2018-06-15T22:19:10.114Z,14.10
2018-06-15T22:21:38.717Z,14.04
2018-06-15T22:24:07.600Z,14.08
2018-06-15T22:26:36.380Z,14.04
2018-06-15T22:29:05.985Z,14.03
2018-06-15T22:31:34.817Z,14.02
2018-06-15T22:34:03.664Z,13.96
2018-06-15T22:36:32.491Z,13.91
2018-06-15T22:39:01.303Z,13.76
2018-06-15T22:41:30.301Z,13.69
2018-06-15T22:43:59.017Z,13.66
2018-06-15T22:46:28.508Z,13.67
2018-06-15T22:48:57.229Z,13.63
2018-06-15T22:51:26.055Z,13.59
2018-06-15T22:53:54.974Z,13.50
2018-06-15T22:56:24.610Z,13.52
2018-06-15T22:58:53.362Z,13.46
2018-06-15T23:01:21.939Z,13.46
2018-06-15T23:03:50.614Z,13.44
2018-06-15T23:06:19.214Z,13.35
2018-06-15T23:08:47.820Z,13.32
2018-06-15T23:11:16.491Z,13.30
2018-06-15T23:13:45.071Z,13.29
2018-06-15T23:16:14.674Z,13.29
2018-06-15T23:18:43.320Z,13.25
2018-06-15T23:21:12.024Z,13.26
2018-06-15T23:23:41.091Z,13.24
2018-06-15T23:26:09.916Z,13.27
2018-06-15T23:28:38.438Z,13.30
2018-06-15T23:31:07.914Z,13.24
2018-06-15T23:33:36.665Z,13.11
2018-06-15T23:36:05.345Z,13.05
2018-06-15T23:38:34.153Z,13.03
2018-06-15T23:41:02.689Z,13.00
2018-06-15T23:43:31.684Z,12.92
2018-06-15T23:46:00.351Z,12.90
2018-06-15T23:48:29.381Z,12.87
2018-06-15T23:50:58.007Z,12.90
2018-06-15T23:53:26.780Z,12.89
2018-06-15T23:55:55.384Z,12.85
2018-06-15T23:58:24.150Z,12.88
